createdAt,value
2018-12-30T00:00:28.631Z,0
2018-12-30T00:01:09.525Z,0
2018-12-30T00:01:50.363Z,0
2018-12-30T00:02:31.036Z,0
2018-12-30T00:03:11.849Z,0
2018-12-30T00:03:52.748Z,0
2018-12-30T00:04:33.591Z,0
2018-12-30T00:05:14.336Z,0
2018-12-30T00:05:55.174Z,0
2018-12-30T00:06:36.045Z,0
2018-12-30T00:07:16.931Z,0
2018-12-30T00:07:57.691Z,0
2018-12-30T00:08:38.439Z,0
2018-12-30T00:09:19.161Z,0
2018-12-30T00:10:00.025Z,0
2018-12-30T00:10:40.902Z,0
2018-12-30T00:11:21.787Z,0
2018-12-30T00:12:02.645Z,0
2018-12-30T00:12:43.495Z,0
2018-12-30T00:13:24.341Z,0
2018-12-30T00:14:05.312Z,0
2018-12-30T00:14:46.105Z,0
2018-12-30T00:15:26.899Z,0
2018-12-30T00:16:07.704Z,0
2018-12-30T00:16:48.540Z,0
2018-12-30T00:17:29.339Z,0
2018-12-30T00:18:10.223Z,0
2018-12-30T00:18:51.103Z,0
2018-12-30T00:19:31.893Z,0
2018-12-30T00:20:12.734Z,0
2018-12-30T00:20:53.590Z,0
2018-12-30T00:21:34.640Z,0
2018-12-30T00:22:16.000Z,0
2018-12-30T00:22:56.760Z,0
2018-12-30T00:23:37.632Z,0
2018-12-30T00:24:18.382Z,0
2018-12-30T00:24:59.283Z,0
2018-12-30T00:25:40.054Z,0
2018-12-30T00:26:21.166Z,0
2018-12-30T00:27:02.040Z,0
2018-12-30T00:27:42.772Z,0
2018-12-30T00:28:23.635Z,0
2018-12-30T00:29:04.451Z,0
2018-12-30T00:29:45.238Z,0
2018-12-30T00:30:26.034Z,0
2018-12-30T00:31:06.869Z,0
2018-12-30T00:31:47.861Z,0
2018-12-30T00:32:28.766Z,0
2018-12-30T00:33:09.570Z,0
2018-12-30T00:33:50.395Z,0
2018-12-30T00:34:31.130Z,0
2018-12-30T00:35:11.879Z,0
2018-12-30T00:35:52.812Z,0
2018-12-30T00:36:33.694Z,0
2018-12-30T00:37:14.592Z,0
2018-12-30T00:37:55.408Z,0
2018-12-30T00:38:36.123Z,0
2018-12-30T00:39:17.022Z,0
2018-12-30T00:39:57.869Z,0
2018-12-30T00:40:38.710Z,0
2018-12-30T00:41:19.407Z,0
2018-12-30T00:42:00.316Z,0
2018-12-30T00:42:41.162Z,0
2018-12-30T00:43:22.058Z,0
2018-12-30T00:44:02.925Z,0
2018-12-30T00:44:43.749Z,0
2018-12-30T00:45:24.426Z,0
2018-12-30T00:46:05.174Z,0
2018-12-30T00:46:46.131Z,0
2018-12-30T00:47:26.828Z,0
2018-12-30T00:48:07.685Z,0
2018-12-30T00:48:48.610Z,0
2018-12-30T00:49:29.476Z,0
2018-12-30T00:50:10.426Z,0
2018-12-30T00:50:51.085Z,0
2018-12-30T00:51:31.853Z,0
2018-12-30T00:52:12.751Z,0
2018-12-30T00:52:53.539Z,0
2018-12-30T00:53:34.315Z,0
2018-12-30T00:54:15.375Z,0
2018-12-30T00:54:56.196Z,0
2018-12-30T00:55:36.988Z,0
2018-12-30T00:56:17.830Z,0
2018-12-30T00:56:58.940Z,0
2018-12-30T00:57:39.885Z,0
2018-12-30T00:58:20.600Z,0
2018-12-30T00:59:01.530Z,0
2018-12-30T00:59:42.297Z,0
2018-12-30T01:00:23.136Z,0
2018-12-30T01:01:03.887Z,0
2018-12-30T01:01:44.783Z,0
2018-12-30T01:02:25.546Z,0
2018-12-30T01:03:06.432Z,0
2018-12-30T01:03:47.411Z,0
2018-12-30T01:04:28.156Z,0
2018-12-30T01:05:09.059Z,0
2018-12-30T01:05:49.907Z,0
2018-12-30T01:06:30.797Z,0
2018-12-30T01:07:11.809Z,0
2018-12-30T01:07:52.632Z,0
2018-12-30T01:08:33.396Z,0
2018-12-30T01:09:14.252Z,0
2018-12-30T01:09:55.062Z,0
2018-12-30T01:10:35.981Z,0
2018-12-30T01:11:16.736Z,0
2018-12-30T01:11:57.554Z,0
2018-12-30T01:12:38.423Z,0
2018-12-30T01:13:19.828Z,0
2018-12-30T01:14:00.647Z,0
2018-12-30T01:14:41.343Z,0
2018-12-30T01:15:22.195Z,0
2018-12-30T01:16:03.080Z,0
2018-12-30T01:16:43.960Z,0
2018-12-30T01:17:24.807Z,0
2018-12-30T01:18:05.530Z,0
2018-12-30T01:18:46.331Z,0
2018-12-30T01:19:27.075Z,0
2018-12-30T01:20:07.905Z,0
2018-12-30T01:20:48.990Z,0
2018-12-30T01:21:30.154Z,0
2018-12-30T01:22:11.020Z,0
2018-12-30T01:22:51.830Z,0
2018-12-30T01:23:33.026Z,0
2018-12-30T01:24:14.060Z,0
2018-12-30T01:24:54.875Z,0
2018-12-30T01:25:35.594Z,0
2018-12-30T01:26:16.414Z,0
2018-12-30T01:26:57.331Z,0
2018-12-30T01:27:38.226Z,0
2018-12-30T01:28:19.029Z,0
2018-12-30T01:28:59.836Z,0
2018-12-30T01:29:40.550Z,0
2018-12-30T01:30:21.257Z,0
2018-12-30T01:31:02.119Z,0
2018-12-30T01:31:42.932Z,0
2018-12-30T01:32:23.858Z,0
2018-12-30T01:33:04.801Z,0
2018-12-30T01:33:45.604Z,0
2018-12-30T01:34:26.420Z,0
2018-12-30T01:35:07.247Z,0
2018-12-30T01:35:48.124Z,0
2018-12-30T01:36:29.033Z,0
2018-12-30T01:37:09.990Z,0
2018-12-30T01:37:50.734Z,0
2018-12-30T01:38:31.579Z,0
2018-12-30T01:39:12.371Z,0
2018-12-30T01:39:53.204Z,0
2018-12-30T01:40:34.033Z,0
2018-12-30T01:41:14.818Z,0
2018-12-30T01:41:55.703Z,0
2018-12-30T01:42:36.539Z,0
2018-12-30T01:43:17.399Z,0
2018-12-30T01:43:58.155Z,0
2018-12-30T01:44:38.929Z,0
2018-12-30T01:45:19.710Z,0
2018-12-30T01:46:00.611Z,0
2018-12-30T01:46:41.544Z,0
2018-12-30T01:47:22.409Z,0
2018-12-30T01:48:03.278Z,0
2018-12-30T01:48:44.153Z,0
2018-12-30T01:49:25.028Z,0
2018-12-30T01:50:05.927Z,0
2018-12-30T01:50:46.748Z,0
2018-12-30T01:51:32.934Z,0
2018-12-30T01:52:08.477Z,0
2018-12-30T01:52:49.448Z,0
2018-12-30T01:53:30.223Z,0
2018-12-30T01:54:10.922Z,0
2018-12-30T01:54:51.665Z,0
2018-12-30T01:55:32.560Z,0
2018-12-30T01:56:13.366Z,0
2018-12-30T01:56:54.134Z,0
2018-12-30T01:57:34.994Z,0
2018-12-30T01:58:15.938Z,0
2018-12-30T01:58:56.703Z,0
2018-12-30T01:59:37.557Z,0
2018-12-30T02:00:18.386Z,0
2018-12-30T02:00:59.277Z,0
2018-12-30T02:01:40.166Z,0
2018-12-30T02:02:21.070Z,0
2018-12-30T02:03:01.862Z,0
2018-12-30T02:03:42.589Z,0
2018-12-30T02:04:23.337Z,0
2018-12-30T02:05:04.099Z,0
2018-12-30T02:05:44.890Z,0
2018-12-30T02:06:25.676Z,0
2018-12-30T02:07:06.463Z,0
2018-12-30T02:07:47.442Z,0
2018-12-30T02:08:28.352Z,0
2018-12-30T02:09:09.232Z,0
2018-12-30T02:09:50.080Z,0
2018-12-30T02:10:30.905Z,0
2018-12-30T02:11:11.789Z,0
2018-12-30T02:11:52.577Z,0
2018-12-30T02:12:33.445Z,0
2018-12-30T02:13:14.093Z,0
2018-12-30T02:13:54.922Z,0
2018-12-30T02:14:35.852Z,0
2018-12-30T02:15:16.648Z,0
2018-12-30T02:15:57.393Z,0
2018-12-30T02:16:38.192Z,0
2018-12-30T02:17:19.115Z,0
2018-12-30T02:17:59.915Z,0
2018-12-30T02:18:40.649Z,0
2018-12-30T02:19:21.354Z,0
2018-12-30T02:20:02.083Z,0
2018-12-30T02:20:42.846Z,0
2018-12-30T02:21:23.665Z,0
2018-12-30T02:22:04.464Z,0
2018-12-30T02:22:45.233Z,0
2018-12-30T02:23:25.977Z,0
2018-12-30T02:24:06.732Z,0
2018-12-30T02:24:47.507Z,0
2018-12-30T02:25:28.226Z,0
2018-12-30T02:26:08.908Z,0
2018-12-30T02:26:49.633Z,0
2018-12-30T02:27:30.417Z,0
2018-12-30T02:28:11.226Z,0
2018-12-30T02:28:52.023Z,0
2018-12-30T02:29:32.775Z,0
2018-12-30T02:30:13.517Z,0
2018-12-30T02:30:54.240Z,0
2018-12-30T02:31:34.957Z,0
2018-12-30T02:32:15.814Z,0
2018-12-30T02:32:56.514Z,0
2018-12-30T02:33:37.273Z,0
2018-12-30T02:34:18.079Z,0
2018-12-30T02:34:58.857Z,0
2018-12-30T02:35:39.684Z,0
2018-12-30T02:36:20.449Z,0
2018-12-30T02:37:01.221Z,0
2018-12-30T02:37:41.938Z,0
2018-12-30T02:38:22.709Z,0
2018-12-30T02:39:03.513Z,0
2018-12-30T02:39:44.300Z,0
2018-12-30T02:40:25.037Z,0
2018-12-30T02:41:05.780Z,0
2018-12-30T02:41:46.575Z,0
2018-12-30T02:42:27.366Z,0
2018-12-30T02:43:08.108Z,0
2018-12-30T02:43:48.840Z,0
2018-12-30T02:44:29.612Z,0
2018-12-30T02:45:10.426Z,0
2018-12-30T02:45:51.191Z,0
2018-12-30T02:46:31.914Z,0
2018-12-30T02:47:12.662Z,0
2018-12-30T02:47:53.463Z,0
2018-12-30T02:48:34.302Z,0
2018-12-30T02:49:15.023Z,0
2018-12-30T02:49:55.770Z,0
2018-12-30T02:50:36.660Z,0
2018-12-30T02:51:17.435Z,0
2018-12-30T02:51:58.187Z,0
2018-12-30T02:52:38.903Z,0
2018-12-30T02:53:19.693Z,0
2018-12-30T02:54:00.509Z,0
2018-12-30T02:54:41.302Z,0
2018-12-30T02:55:22.069Z,0
2018-12-30T02:56:02.818Z,0
2018-12-30T02:56:43.561Z,0
2018-12-30T02:57:24.302Z,0
2018-12-30T02:58:05.177Z,0
2018-12-30T02:58:45.834Z,0
2018-12-30T02:59:26.562Z,0
2018-12-30T03:00:07.410Z,0
2018-12-30T03:00:48.205Z,0
2018-12-30T03:01:29.037Z,0
2018-12-30T03:02:09.779Z,0
2018-12-30T03:02:50.458Z,0
2018-12-30T03:03:31.178Z,0
2018-12-30T03:04:12.018Z,0
2018-12-30T03:04:52.818Z,0
2018-12-30T03:05:33.628Z,0
2018-12-30T03:06:14.371Z,0
2018-12-30T03:06:55.087Z,0
2018-12-30T03:07:35.857Z,0
2018-12-30T03:08:16.649Z,0
2018-12-30T03:08:57.343Z,0
2018-12-30T03:09:38.094Z,0
2018-12-30T03:10:18.848Z,0
2018-12-30T03:10:59.634Z,0
2018-12-30T03:11:40.476Z,0
2018-12-30T03:12:21.207Z,0
2018-12-30T03:13:01.934Z,0
2018-12-30T03:13:42.630Z,0
2018-12-30T03:14:23.331Z,0
2018-12-30T03:15:04.104Z,0
2018-12-30T03:15:44.885Z,0
2018-12-30T03:16:25.606Z,0
2018-12-30T03:17:06.352Z,0
2018-12-30T03:17:47.185Z,0
2018-12-30T03:18:28.088Z,0
2018-12-30T03:19:08.758Z,0
2018-12-30T03:19:49.493Z,0
2018-12-30T03:20:30.276Z,0
2018-12-30T03:21:11.050Z,0
2018-12-30T03:21:59.095Z,0
2018-12-30T03:22:32.545Z,0
2018-12-30T03:23:13.241Z,0
2018-12-30T03:23:54.068Z,0
2018-12-30T03:24:34.877Z,0
2018-12-30T03:25:15.603Z,0
2018-12-30T03:25:56.374Z,0
2018-12-30T03:26:37.155Z,0
2018-12-30T03:27:17.924Z,0
2018-12-30T03:27:58.677Z,0
2018-12-30T03:28:39.364Z,0
2018-12-30T03:29:20.044Z,0
2018-12-30T03:30:00.951Z,0
2018-12-30T03:30:41.726Z,0
2018-12-30T03:31:22.550Z,0
2018-12-30T03:32:03.345Z,0
2018-12-30T03:32:44.022Z,0
2018-12-30T03:33:24.855Z,0
2018-12-30T03:34:05.641Z,0
2018-12-30T03:34:46.344Z,0
2018-12-30T03:35:27.070Z,0
2018-12-30T03:36:07.758Z,0
2018-12-30T03:36:48.523Z,0
2018-12-30T03:37:29.287Z,0
2018-12-30T03:38:10.080Z,0
2018-12-30T03:38:50.837Z,0
2018-12-30T03:39:31.600Z,0
2018-12-30T03:40:12.288Z,0
2018-12-30T03:40:53.038Z,0
2018-12-30T03:41:33.833Z,0
2018-12-30T03:42:14.609Z,0
2018-12-30T03:42:55.365Z,0
2018-12-30T03:43:36.234Z,0
2018-12-30T03:44:17.062Z,0
2018-12-30T03:44:57.879Z,0
2018-12-30T03:45:38.620Z,0
2018-12-30T03:46:19.380Z,0
2018-12-30T03:47:00.114Z,0
2018-12-30T03:47:40.885Z,0
2018-12-30T03:48:21.670Z,0
2018-12-30T03:49:02.461Z,0
2018-12-30T03:49:43.231Z,0
2018-12-30T03:50:23.966Z,0
2018-12-30T03:51:04.795Z,0
2018-12-30T03:51:45.558Z,0
2018-12-30T03:52:26.310Z,0
2018-12-30T03:53:07.041Z,0
2018-12-30T03:53:47.797Z,0
2018-12-30T03:54:28.630Z,0
2018-12-30T03:55:09.429Z,0
2018-12-30T03:55:50.157Z,0
2018-12-30T03:56:30.957Z,0
2018-12-30T03:57:11.777Z,0
2018-12-30T03:57:52.566Z,0
2018-12-30T03:58:33.284Z,0
2018-12-30T03:59:13.983Z,0
2018-12-30T03:59:54.819Z,0
2018-12-30T04:00:35.577Z,0
2018-12-30T04:01:16.288Z,0
2018-12-30T04:01:57.019Z,0
2018-12-30T04:02:37.767Z,0
2018-12-30T04:03:18.519Z,0
2018-12-30T04:03:59.349Z,0
2018-12-30T04:04:40.138Z,0
2018-12-30T04:05:20.831Z,0
2018-12-30T04:06:01.570Z,0
2018-12-30T04:06:42.313Z,0
2018-12-30T04:07:23.144Z,0
2018-12-30T04:08:03.909Z,0
2018-12-30T04:08:44.696Z,0
2018-12-30T04:09:25.506Z,0
2018-12-30T04:10:06.305Z,0
2018-12-30T04:10:47.116Z,0
2018-12-30T04:11:27.852Z,0
2018-12-30T04:12:08.583Z,0
2018-12-30T04:12:49.432Z,0
2018-12-30T04:13:30.191Z,0
2018-12-30T04:14:10.889Z,0
2018-12-30T04:14:51.628Z,0
2018-12-30T04:15:32.315Z,0
2018-12-30T04:16:13.161Z,0
2018-12-30T04:16:53.936Z,0
2018-12-30T04:17:34.646Z,0
2018-12-30T04:18:15.418Z,0
2018-12-30T04:18:56.234Z,0
2018-12-30T04:19:37.059Z,0
2018-12-30T04:20:17.814Z,0
2018-12-30T04:20:58.544Z,0
2018-12-30T04:21:39.274Z,0
2018-12-30T04:22:20.049Z,0
2018-12-30T04:23:00.851Z,0
2018-12-30T04:23:41.671Z,0
2018-12-30T04:24:22.409Z,0
2018-12-30T04:25:03.140Z,0
2018-12-30T04:25:43.911Z,0
2018-12-30T04:26:24.708Z,0
2018-12-30T04:27:05.486Z,0
2018-12-30T04:27:46.235Z,0
2018-12-30T04:28:26.972Z,0
2018-12-30T04:29:07.789Z,0
2018-12-30T04:29:48.544Z,0
2018-12-30T04:30:29.301Z,0
2018-12-30T04:31:10.072Z,0
2018-12-30T04:31:50.894Z,0
2018-12-30T04:32:31.733Z,0
2018-12-30T04:33:12.451Z,0
2018-12-30T04:33:53.144Z,0
2018-12-30T04:34:33.961Z,0
2018-12-30T04:35:14.721Z,0
2018-12-30T04:35:55.414Z,0
2018-12-30T04:36:36.150Z,0
2018-12-30T04:37:16.834Z,0
2018-12-30T04:37:57.638Z,0
2018-12-30T04:38:38.393Z,0
2018-12-30T04:39:19.188Z,0
2018-12-30T04:39:59.895Z,0
2018-12-30T04:40:40.596Z,0
2018-12-30T04:41:21.320Z,0
2018-12-30T04:42:02.090Z,0
2018-12-30T04:42:42.878Z,0
2018-12-30T04:43:23.593Z,0
2018-12-30T04:44:04.326Z,0
2018-12-30T04:44:45.122Z,0
2018-12-30T04:45:25.984Z,0
2018-12-30T04:46:06.724Z,0
2018-12-30T04:46:47.503Z,0
2018-12-30T04:47:28.206Z,0
2018-12-30T04:48:08.963Z,0
2018-12-30T04:48:49.786Z,0
2018-12-30T04:49:30.558Z,0
2018-12-30T04:50:11.418Z,0
2018-12-30T04:50:52.158Z,0
2018-12-30T04:51:32.958Z,0
2018-12-30T04:52:13.784Z,0
2018-12-30T04:52:54.520Z,0
2018-12-30T04:53:35.214Z,0
2018-12-30T04:54:15.923Z,0
2018-12-30T04:54:56.673Z,0
2018-12-30T04:55:37.461Z,0
2018-12-30T04:56:18.270Z,0
2018-12-30T04:56:59.002Z,0
2018-12-30T04:57:39.754Z,0
2018-12-30T04:58:20.473Z,0
2018-12-30T04:59:01.198Z,0
2018-12-30T04:59:42.010Z,0
2018-12-30T05:00:22.805Z,0
2018-12-30T05:01:03.558Z,0
2018-12-30T05:01:44.365Z,0
2018-12-30T05:02:25.120Z,0
2018-12-30T05:03:05.922Z,0
2018-12-30T05:03:46.669Z,0
2018-12-30T05:04:27.369Z,0
2018-12-30T05:05:08.156Z,0
2018-12-30T05:05:48.898Z,0
2018-12-30T05:06:29.601Z,0
2018-12-30T05:07:10.343Z,0
2018-12-30T05:07:51.067Z,0
2018-12-30T05:08:31.881Z,0
2018-12-30T05:09:12.623Z,0
2018-12-30T05:09:53.444Z,0
2018-12-30T05:10:34.133Z,0
2018-12-30T05:11:14.894Z,0
2018-12-30T05:11:55.691Z,0
2018-12-30T05:12:36.435Z,0
2018-12-30T05:13:17.179Z,0
2018-12-30T05:13:57.883Z,0
2018-12-30T05:14:38.698Z,0
2018-12-30T05:15:19.484Z,0
2018-12-30T05:16:00.300Z,0
2018-12-30T05:16:41.109Z,0
2018-12-30T05:17:21.817Z,0
2018-12-30T05:18:02.676Z,0
2018-12-30T05:18:43.422Z,0
2018-12-30T05:19:24.233Z,0
2018-12-30T05:20:04.927Z,0
2018-12-30T05:20:45.632Z,0
2018-12-30T05:21:26.453Z,0
2018-12-30T05:22:07.245Z,0
2018-12-30T05:22:48.084Z,0
2018-12-30T05:23:28.845Z,0
2018-12-30T05:24:09.596Z,0
2018-12-30T05:24:50.309Z,0
2018-12-30T05:25:31.105Z,0
2018-12-30T05:26:11.909Z,0
2018-12-30T05:26:52.636Z,0
2018-12-30T05:27:33.375Z,0
2018-12-30T05:28:14.172Z,0
2018-12-30T05:28:54.939Z,0
2018-12-30T05:29:35.749Z,0
2018-12-30T05:30:16.444Z,0
2018-12-30T05:30:57.129Z,0
2018-12-30T05:31:37.841Z,0
2018-12-30T05:32:18.619Z,0
2018-12-30T05:32:59.400Z,0
2018-12-30T05:33:40.203Z,0
2018-12-30T05:34:20.950Z,0
2018-12-30T05:35:01.722Z,0
2018-12-30T05:35:42.492Z,0
2018-12-30T05:36:23.270Z,0
2018-12-30T05:37:03.999Z,0
2018-12-30T05:37:44.695Z,0
2018-12-30T05:38:25.479Z,0
2018-12-30T05:39:06.280Z,0
2018-12-30T05:39:47.035Z,0
2018-12-30T05:40:27.883Z,0
2018-12-30T05:41:08.544Z,0
2018-12-30T05:41:49.348Z,0
2018-12-30T05:42:30.198Z,0
2018-12-30T05:43:10.928Z,0
2018-12-30T05:43:51.704Z,0
2018-12-30T05:44:32.543Z,0
2018-12-30T05:45:13.257Z,0
2018-12-30T05:45:53.941Z,0
2018-12-30T05:46:34.663Z,0
2018-12-30T05:47:15.399Z,0
2018-12-30T05:47:56.232Z,0
2018-12-30T05:48:37.841Z,0
2018-12-30T05:49:17.757Z,0
2018-12-30T05:49:58.447Z,0
2018-12-30T05:50:39.208Z,0
2018-12-30T05:51:19.974Z,0
2018-12-30T05:52:00.758Z,0
2018-12-30T05:52:42.107Z,0
2018-12-30T05:53:22.283Z,0
2018-12-30T05:54:03.060Z,0
2018-12-30T05:54:43.866Z,0
2018-12-30T05:55:24.710Z,0
2018-12-30T05:56:05.448Z,0
2018-12-30T05:56:46.221Z,0
2018-12-30T05:57:26.939Z,0
2018-12-30T05:58:07.696Z,0
2018-12-30T05:58:48.495Z,0
2018-12-30T05:59:29.264Z,0
2018-12-30T06:00:10.111Z,0
2018-12-30T06:00:50.857Z,0
2018-12-30T06:01:31.649Z,0
2018-12-30T06:02:12.472Z,0
2018-12-30T06:02:53.221Z,0
2018-12-30T06:03:33.978Z,0
2018-12-30T06:04:14.750Z,0
2018-12-30T06:04:55.602Z,0
2018-12-30T06:05:36.384Z,0
2018-12-30T06:06:17.145Z,0
2018-12-30T06:06:57.888Z,0
2018-12-30T06:07:38.598Z,0
2018-12-30T06:08:19.336Z,0
2018-12-30T06:09:00.060Z,0
2018-12-30T06:09:40.865Z,0
2018-12-30T06:10:21.551Z,0
2018-12-30T06:11:02.265Z,0
2018-12-30T06:11:43.068Z,0
2018-12-30T06:12:23.822Z,0
2018-12-30T06:13:04.617Z,0
2018-12-30T06:13:45.321Z,0
2018-12-30T06:14:26.087Z,0
2018-12-30T06:15:06.903Z,0
2018-12-30T06:15:47.608Z,0
2018-12-30T06:16:28.355Z,0
2018-12-30T06:17:09.066Z,0
2018-12-30T06:17:49.796Z,0
2018-12-30T06:18:30.676Z,0
2018-12-30T06:19:11.377Z,0
2018-12-30T06:19:52.186Z,0
2018-12-30T06:20:32.982Z,0
2018-12-30T06:21:13.729Z,0
2018-12-30T06:21:54.509Z,0
2018-12-30T06:22:35.232Z,0
2018-12-30T06:23:15.968Z,0
2018-12-30T06:23:56.707Z,0
2018-12-30T06:24:37.511Z,0
2018-12-30T06:25:18.296Z,0
2018-12-30T06:25:59.107Z,0
2018-12-30T06:26:39.810Z,0
2018-12-30T06:27:20.594Z,0
2018-12-30T06:28:01.385Z,0
2018-12-30T06:28:42.113Z,0
2018-12-30T06:29:22.823Z,0
2018-12-30T06:30:03.577Z,0
2018-12-30T06:30:44.339Z,0
2018-12-30T06:31:25.171Z,0
2018-12-30T06:32:05.923Z,0
2018-12-30T06:32:46.668Z,0
2018-12-30T06:33:27.467Z,0
2018-12-30T06:34:08.237Z,0
2018-12-30T06:34:49.031Z,0
2018-12-30T06:35:29.763Z,0
2018-12-30T06:36:10.540Z,0
2018-12-30T06:36:51.361Z,0
2018-12-30T06:37:32.078Z,0
2018-12-30T06:38:12.816Z,0
2018-12-30T06:38:53.507Z,0
2018-12-30T06:39:34.284Z,0
2018-12-30T06:40:15.060Z,0
2018-12-30T06:40:55.900Z,0
2018-12-30T06:41:36.618Z,0
2018-12-30T06:42:17.358Z,0
2018-12-30T06:42:58.062Z,0
2018-12-30T06:43:38.790Z,0
2018-12-30T06:44:19.553Z,0
2018-12-30T06:45:00.268Z,0
2018-12-30T06:45:41.024Z,0
2018-12-30T06:46:21.812Z,0
2018-12-30T06:47:02.579Z,0
2018-12-30T06:47:43.365Z,0
2018-12-30T06:48:24.079Z,0
2018-12-30T06:49:04.852Z,0
2018-12-30T06:49:45.656Z,0
2018-12-30T06:50:26.365Z,0
2018-12-30T06:51:07.064Z,0
2018-12-30T06:51:47.752Z,0
2018-12-30T06:52:28.550Z,0
2018-12-30T06:53:09.348Z,0
2018-12-30T06:53:50.074Z,0
2018-12-30T06:54:30.821Z,0
2018-12-30T06:55:11.599Z,0
2018-12-30T06:55:52.420Z,0
2018-12-30T06:56:33.187Z,0
2018-12-30T06:57:13.896Z,0
2018-12-30T06:57:54.662Z,0
2018-12-30T06:58:35.401Z,0
2018-12-30T06:59:16.221Z,0
2018-12-30T06:59:57.947Z,0
2018-12-30T07:00:38.768Z,0
2018-12-30T07:01:19.462Z,0
2018-12-30T07:02:00.219Z,0
2018-12-30T07:02:41.027Z,0
2018-12-30T07:03:21.829Z,0
2018-12-30T07:04:02.539Z,4
2018-12-30T07:04:43.247Z,4
2018-12-30T07:05:23.988Z,0
2018-12-30T07:06:04.798Z,0
2018-12-30T07:06:45.567Z,0
2018-12-30T07:07:26.368Z,0
2018-12-30T07:08:07.047Z,0
2018-12-30T07:08:47.808Z,4
2018-12-30T07:09:28.542Z,4
2018-12-30T07:10:09.376Z,0
2018-12-30T07:10:50.075Z,0
2018-12-30T07:11:30.821Z,4
2018-12-30T07:12:11.601Z,4
2018-12-30T07:12:52.388Z,4
2018-12-30T07:13:33.226Z,4
2018-12-30T07:14:13.953Z,4
2018-12-30T07:14:54.713Z,4
2018-12-30T07:15:35.420Z,4
2018-12-30T07:16:16.203Z,4
2018-12-30T07:16:57.016Z,8
2018-12-30T07:17:37.795Z,4
2018-12-30T07:18:18.585Z,4
2018-12-30T07:18:59.317Z,8
2018-12-30T07:19:40.143Z,8
2018-12-30T07:20:20.900Z,4
2018-12-30T07:21:01.649Z,8
2018-12-30T07:21:42.386Z,8
2018-12-30T07:22:23.086Z,12
2018-12-30T07:23:05.879Z,8
2018-12-30T07:23:44.714Z,12
2018-12-30T07:24:25.500Z,12
2018-12-30T07:25:06.284Z,8
2018-12-30T07:25:47.074Z,12
2018-12-30T07:26:27.900Z,12
2018-12-30T07:27:08.613Z,12
2018-12-30T07:27:49.322Z,16
2018-12-30T07:28:30.128Z,16
2018-12-30T07:29:10.884Z,16
2018-12-30T07:29:51.598Z,16
2018-12-30T07:30:32.352Z,16
2018-12-30T07:31:13.092Z,16
2018-12-30T07:31:53.902Z,20
2018-12-30T07:32:34.684Z,16
2018-12-30T07:33:15.552Z,20
2018-12-30T07:33:56.227Z,20
2018-12-30T07:34:36.937Z,20
2018-12-30T07:35:17.689Z,20
2018-12-30T07:35:58.464Z,24
2018-12-30T07:36:39.240Z,20
2018-12-30T07:37:19.955Z,24
2018-12-30T07:38:00.737Z,28
2018-12-30T07:38:41.537Z,24
2018-12-30T07:39:22.357Z,28
2018-12-30T07:40:03.130Z,24
2018-12-30T07:40:43.829Z,28
2018-12-30T07:41:24.581Z,28
2018-12-30T07:42:05.302Z,28
2018-12-30T07:42:46.115Z,28
2018-12-30T07:43:26.898Z,32
2018-12-30T07:44:07.635Z,32
2018-12-30T07:44:48.361Z,32
2018-12-30T07:45:29.069Z,36
2018-12-30T07:46:09.865Z,32
2018-12-30T07:46:50.576Z,36
2018-12-30T07:47:31.312Z,36
2018-12-30T07:48:12.004Z,36
2018-12-30T07:48:52.761Z,36
2018-12-30T07:49:33.527Z,36
2018-12-30T07:50:14.328Z,40
2018-12-30T07:50:55.079Z,40
2018-12-30T07:51:35.817Z,40
2018-12-30T07:52:16.561Z,40
2018-12-30T07:52:57.299Z,40
2018-12-30T07:53:38.109Z,44
2018-12-30T07:54:18.909Z,44
2018-12-30T07:54:59.620Z,44
2018-12-30T07:55:40.454Z,44
2018-12-30T07:56:21.216Z,44
2018-12-30T07:57:02.084Z,48
2018-12-30T07:57:42.812Z,44
2018-12-30T07:58:23.576Z,48
2018-12-30T07:59:04.435Z,52
2018-12-30T07:59:45.155Z,48
2018-12-30T08:00:25.878Z,52
2018-12-30T08:01:06.595Z,48
2018-12-30T08:01:47.340Z,52
2018-12-30T08:02:28.145Z,52
2018-12-30T08:03:08.921Z,52
2018-12-30T08:03:49.670Z,52
2018-12-30T08:04:30.505Z,56
2018-12-30T08:05:11.306Z,56
2018-12-30T08:05:52.078Z,56
2018-12-30T08:06:32.768Z,56
2018-12-30T08:07:13.525Z,56
2018-12-30T08:07:54.278Z,60
2018-12-30T08:08:35.181Z,56
2018-12-30T08:09:15.966Z,60
2018-12-30T08:09:56.838Z,60
2018-12-30T08:10:37.590Z,60
2018-12-30T08:11:18.262Z,60
2018-12-30T08:11:59.056Z,64
2018-12-30T08:12:39.801Z,64
2018-12-30T08:13:20.528Z,60
2018-12-30T08:14:01.305Z,64
2018-12-30T08:14:42.013Z,64
2018-12-30T08:15:22.810Z,64
2018-12-30T08:16:03.650Z,64
2018-12-30T08:16:44.389Z,64
2018-12-30T08:17:25.127Z,68
2018-12-30T08:18:05.858Z,68
2018-12-30T08:18:46.579Z,68
2018-12-30T08:19:27.389Z,72
2018-12-30T08:20:08.137Z,68
2018-12-30T08:20:48.897Z,68
2018-12-30T08:21:29.753Z,72
2018-12-30T08:22:10.518Z,72
2018-12-30T08:22:51.312Z,72
2018-12-30T08:23:32.071Z,76
2018-12-30T08:24:12.829Z,72
2018-12-30T08:24:53.573Z,76
2018-12-30T08:25:34.368Z,76
2018-12-30T08:26:15.162Z,76
2018-12-30T08:26:55.943Z,76
2018-12-30T08:27:36.689Z,76
2018-12-30T08:28:24.788Z,80
2018-12-30T08:28:58.191Z,80
2018-12-30T08:29:38.986Z,84
2018-12-30T08:30:19.691Z,84
2018-12-30T08:31:00.404Z,88
2018-12-30T08:31:41.106Z,84
2018-12-30T08:32:21.947Z,88
2018-12-30T08:33:02.689Z,92
2018-12-30T08:33:43.395Z,92
2018-12-30T08:34:24.211Z,96
2018-12-30T08:35:04.969Z,92
2018-12-30T08:35:45.969Z,96
2018-12-30T08:36:26.709Z,100
2018-12-30T08:37:07.445Z,96
2018-12-30T08:37:48.259Z,100
2018-12-30T08:38:28.987Z,100
2018-12-30T08:39:09.730Z,104
2018-12-30T08:39:50.503Z,104
2018-12-30T08:40:31.223Z,104
2018-12-30T08:41:12.087Z,108
2018-12-30T08:41:52.814Z,108
2018-12-30T08:42:33.591Z,108
2018-12-30T08:43:14.343Z,112
2018-12-30T08:43:55.052Z,112
2018-12-30T08:44:35.781Z,116
2018-12-30T08:45:16.595Z,112
2018-12-30T08:45:57.382Z,116
2018-12-30T08:46:38.141Z,116
2018-12-30T08:47:18.918Z,120
2018-12-30T08:47:59.621Z,120
2018-12-30T08:48:40.422Z,120
2018-12-30T08:49:21.210Z,124
2018-12-30T08:50:01.996Z,124
2018-12-30T08:50:42.702Z,128
2018-12-30T08:51:23.536Z,128
2018-12-30T08:52:04.326Z,128
2018-12-30T08:52:45.094Z,132
2018-12-30T08:53:29.410Z,136
2018-12-30T08:54:06.592Z,136
2018-12-30T08:54:47.363Z,136
2018-12-30T08:55:28.105Z,136
2018-12-30T08:56:08.856Z,140
2018-12-30T08:56:49.609Z,144
2018-12-30T08:57:30.403Z,144
2018-12-30T08:58:11.237Z,148
2018-12-30T08:58:51.941Z,152
2018-12-30T08:59:32.709Z,152
2018-12-30T09:00:13.561Z,156
2018-12-30T09:00:54.329Z,152
2018-12-30T09:01:35.112Z,156
2018-12-30T09:02:15.905Z,160
2018-12-30T09:02:56.595Z,160
2018-12-30T09:03:37.300Z,164
2018-12-30T09:04:18.141Z,164
2018-12-30T09:04:58.917Z,168
2018-12-30T09:05:39.779Z,168
2018-12-30T09:06:20.560Z,168
2018-12-30T09:07:01.342Z,172
2018-12-30T09:07:42.211Z,172
2018-12-30T09:08:22.963Z,176
2018-12-30T09:09:03.717Z,176
2018-12-30T09:09:44.473Z,180
2018-12-30T09:10:25.250Z,180
2018-12-30T09:11:06.099Z,184
2018-12-30T09:11:46.919Z,188
2018-12-30T09:12:27.681Z,188
2018-12-30T09:13:08.426Z,192
2018-12-30T09:13:49.155Z,192
2018-12-30T09:14:29.860Z,196
2018-12-30T09:15:10.704Z,196
2018-12-30T09:15:51.452Z,196
2018-12-30T09:16:32.218Z,204
2018-12-30T09:17:13.038Z,204
2018-12-30T09:17:53.816Z,204
2018-12-30T09:18:34.692Z,208
2018-12-30T09:19:15.374Z,208
2018-12-30T09:19:56.115Z,212
2018-12-30T09:20:36.863Z,212
2018-12-30T09:21:17.753Z,212
2018-12-30T09:21:58.609Z,212
2018-12-30T09:22:39.559Z,216
2018-12-30T09:23:20.532Z,220
2018-12-30T09:24:01.242Z,220
2018-12-30T09:24:42.074Z,220
2018-12-30T09:25:22.828Z,224
2018-12-30T09:26:03.507Z,228
2018-12-30T09:26:44.257Z,228
2018-12-30T09:27:24.973Z,228
2018-12-30T09:28:05.783Z,228
2018-12-30T09:28:46.553Z,232
2018-12-30T09:29:27.300Z,236
2018-12-30T09:30:08.120Z,236
2018-12-30T09:30:48.884Z,240
2018-12-30T09:31:29.690Z,240
2018-12-30T09:32:10.405Z,244
2018-12-30T09:32:51.133Z,240
2018-12-30T09:33:31.924Z,244
2018-12-30T09:34:12.675Z,244
2018-12-30T09:34:53.444Z,248
2018-12-30T09:35:34.141Z,248
2018-12-30T09:36:14.876Z,248
2018-12-30T09:36:55.672Z,248
2018-12-30T09:37:36.482Z,252
2018-12-30T09:38:17.273Z,252
2018-12-30T09:38:58.000Z,256
2018-12-30T09:39:38.715Z,256
2018-12-30T09:40:19.509Z,256
2018-12-30T09:41:00.347Z,256
2018-12-30T09:41:41.098Z,260
2018-12-30T09:42:21.831Z,260
2018-12-30T09:43:02.621Z,260
2018-12-30T09:43:43.416Z,260
2018-12-30T09:44:24.252Z,260
2018-12-30T09:45:05.414Z,264
2018-12-30T09:45:46.171Z,264
2018-12-30T09:46:26.923Z,264
2018-12-30T09:47:07.648Z,268
2018-12-30T09:49:23.175Z,272
2018-12-30T09:50:04.038Z,272
2018-12-30T09:50:44.771Z,276
2018-12-30T09:51:25.503Z,276
2018-12-30T09:52:06.395Z,276
2018-12-30T09:52:47.284Z,276
2018-12-30T09:53:28.179Z,276
2018-12-30T09:54:08.939Z,276
2018-12-30T09:54:49.636Z,280
2018-12-30T09:55:30.320Z,280
2018-12-30T09:56:11.151Z,280